This is the latest recevied weather packets stored in our database for station/object N5GMJ. If no packets are shown the sender has not sent any weather packets the latest 10 day(s).
| Time | Temp. | Humidity | Pressure | Rain* | Wind** | Luminosity | Snow |
|---|---|---|---|---|---|---|---|
| 1777307398 | 30.56° C | 67% | 1009.8 hPa | 0 mm | - | - | - |
| 1777307096 | 30.56° C | 66% | 1009.7 hPa | 0 mm | - | - | - |
| 1777306793 | 30° C | 63% | 1009.9 hPa | 0 mm | - | - | - |
| 1777306490 | 30° C | 71% | 1009.7 hPa | 0 mm | - | - | - |
| 1777306186 | 29.44° C | 72% | 1009.6 hPa | 0 mm | - | - | - |
| 1777305880 | 28.89° C | 71% | 1009.5 hPa | 0 mm | - | - | - |
| 1777305577 | 28.89° C | 71% | 1009.6 hPa | 0 mm | - | - | - |
| 1777305274 | 28.89° C | 72% | 1009.8 hPa | 0 mm | - | - | - |
| 1777304972 | 28.33° C | 75% | 1009.4 hPa | 0 mm | - | - | - |
| 1777304669 | 28.33° C | 76% | 1009.4 hPa | 0 mm | - | - | - |
| 1777304366 | 28.33° C | 75% | 1009.4 hPa | 0 mm | - | - | - |
| 1777304064 | 27.78° C | 78% | 1009.2 hPa | 0 mm | - | - | - |
| 1777303760 | 28.33° C | 75% | 1009.3 hPa | 0 mm | - | - | - |
| 1777303457 | 27.78° C | 77% | 1009.1 hPa | 0 mm | - | - | - |
| 1777303155 | 27.78° C | 79% | 1009.1 hPa | 0 mm | - | - | - |
| 1777302853 | 27.78° C | 78% | 1009.1 hPa | 0 mm | - | - | - |
| 1777302550 | 27.78° C | 78% | 1009.1 hPa | 0 mm | - | - | - |
| 1777302248 | 27.78° C | 77% | 1009.2 hPa | 0 mm | - | - | - |
| 1777301944 | 27.78° C | 78% | 1009.1 hPa | 0 mm | - | - | - |
| 1777301642 | 26.67° C | 80% | 1009.1 hPa | 0 mm | - | - | - |
| 1777301340 | 27.22° C | 80% | 1009.1 hPa | 0 mm | - | - | - |
| 1777301035 | 27.22° C | 80% | 1009 hPa | 0 mm | - | - | - |
| 1777300733 | 27.22° C | 80% | 1009.2 hPa | 0 mm | - | - | - |
| 1777300431 | 26.67° C | 81% | 1009 hPa | 0 mm | - | - | - |
| 1777300129 | 26.67° C | 81% | 1009.1 hPa | 0 mm | - | - | - |
* Rain latest hour (hover to see other rain measurements)
** Current wind speed in m/s (hover to see current wind gust speed)